Time;durP1;ratioP1;P1;durP2;ratioP2;P2;SDS_P1;SDS_P2;PMS_P1;PMS_P2;Temp;Humidity;BMP_temperature;BMP_pressure;BME280_temperature;BME280_humidity;BME280_pressure;Samples;Min_cycle;Max_cycle;Signal;HPM_P1;HPM_P2
2021/10/19 00:01:30;;;;;;;0.75;0.47;;;21.10;45.70;;;;;;5049128;28;20247;-52
2021/10/19 00:04:00;;;;;;;1.35;0.50;;;21.10;45.70;;;;;;5051249;28;20239;-52
2021/10/19 00:06:31;;;;;;;0.47;0.40;;;21.10;45.70;;;;;;5058770;28;20619;-53
2021/10/19 00:09:02;;;;;;;0.40;0.40;;;21.10;45.70;;;;;;5061457;28;20281;-49
2021/10/19 00:11:32;;;;;;;1.23;0.40;;;21.10;45.60;;;;;;5058207;28;20220;-55
2021/10/19 00:14:03;;;;;;;1.00;0.38;;;21.10;45.60;;;;;;5048393;28;20254;-54
2021/10/19 00:16:35;;;;;;;0.85;0.40;;;21.20;45.60;;;;;;5048162;28;20715;-54
2021/10/19 00:19:06;;;;;;;0.40;0.40;;;21.20;45.50;;;;;;5067324;28;20281;-51
2021/10/19 00:21:36;;;;;;;1.38;0.40;;;21.20;45.50;;;;;;5049366;28;20290;-48
2021/10/19 00:24:07;;;;;;;0.77;0.45;;;21.30;45.60;;;;;;5049612;28;20249;-52
2021/10/19 00:26:37;;;;;;;0.45;0.40;;;21.30;45.50;;;;;;5054532;28;20376;-52
2021/10/19 00:29:08;;;;;;;0.88;0.40;;;21.30;45.40;;;;;;5061992;28;20304;-49
2021/10/19 00:31:40;;;;;;;0.20;0.20;;;21.40;45.50;;;;;;5061172;28;20301;-51
2021/10/19 00:34:11;;;;;;;0.30;0.30;;;21.40;45.50;;;;;;5051446;28;20306;-50
2021/10/19 00:36:41;;;;;;;0.20;0.20;;;21.40;45.40;;;;;;5061246;28;20717;-48
2021/10/19 00:39:12;;;;;;;0.30;0.30;;;21.40;45.40;;;;;;5055985;28;20235;-50
2021/10/19 00:41:42;;;;;;;0.50;0.50;;;21.40;45.30;;;;;;5064399;28;20333;-44
2021/10/19 00:44:13;;;;;;;0.63;0.30;;;21.50;45.30;;;;;;5051281;28;20287;-51
2021/10/19 00:46:45;;;;;;;0.30;0.30;;;21.50;45.30;;;;;;5060091;28;20238;-54
2021/10/19 00:49:16;;;;;;;0.40;0.40;;;21.50;45.30;;;;;;5061380;28;20289;-52
2021/10/19 00:51:46;;;;;;;0.47;0.40;;;21.50;45.30;;;;;;5062231;28;20257;-52
2021/10/19 00:54:17;;;;;;;0.20;0.20;;;21.60;45.40;;;;;;5061202;28;20257;-50
2021/10/19 00:56:48;;;;;;;0.50;0.50;;;21.60;45.40;;;;;;5061271;28;20624;-52
2021/10/19 00:59:19;;;;;;;0.40;0.35;;;21.60;45.40;;;;;;5061980;28;20219;-54
2021/10/19 01:01:51;;;;;;;0.35;0.35;;;21.70;45.40;;;;;;5047167;28;20346;-48
2021/10/19 01:04:22;;;;;;;0.30;0.30;;;21.70;45.40;;;;;;5046941;28;20242;-50
2021/10/19 01:06:54;;;;;;;0.30;0.30;;;21.70;45.30;;;;;;5049083;28;20282;-56
2021/10/19 01:09:24;;;;;;;0.30;0.30;;;21.70;45.30;;;;;;5048767;28;20214;-50
2021/10/19 01:11:55;;;;;;;0.20;0.20;;;21.80;45.30;;;;;;5048811;28;20314;-51
2021/10/19 01:14:26;;;;;;;0.75;0.50;;;21.80;45.30;;;;;;5054549;28;20264;-45
2021/10/19 01:16:59;;;;;;;0.30;0.30;;;21.80;45.20;;;;;;5062518;28;20191;-48
2021/10/19 01:19:30;;;;;;;0.75;0.40;;;21.90;45.30;;;;;;5040161;28;20198;-48
2021/10/19 01:22:03;;;;;;;0.35;0.25;;;21.90;45.20;;;;;;5060170;28;20279;-52
2021/10/19 01:24:34;;;;;;;0.38;0.38;;;21.90;45.10;;;;;;5047073;28;20222;-50
2021/10/19 01:27:04;;;;;;;0.38;0.38;;;22.00;45.10;;;;;;5065316;28;20683;-47
2021/10/19 01:29:35;;;;;;;0.70;0.35;;;22.00;45.10;;;;;;5064092;28;20290;-47
2021/10/19 01:32:05;;;;;;;0.30;0.30;;;22.00;45.10;;;;;;5061677;28;20202;-53
2021/10/19 01:34:37;;;;;;;1.77;0.32;;;22.00;45.10;;;;;;5054877;28;20254;-49
2021/10/19 01:37:10;;;;;;;0.30;0.30;;;22.00;45.00;;;;;;5046916;28;20235;-45
2021/10/19 01:39:40;;;;;;;0.45;0.30;;;22.10;45.10;;;;;;5048132;28;20294;-53
2021/10/19 01:42:11;;;;;;;0.40;0.20;;;22.10;45.10;;;;;;5049455;28;20681;-54
2021/10/19 01:44:41;;;;;;;0.30;0.30;;;22.10;45.10;;;;;;5061746;28;20286;-50
2021/10/19 01:47:11;;;;;;;0.35;0.35;;;22.20;45.80;;;;;;5047318;28;20269;-48
2021/10/19 01:49:42;;;;;;;0.43;0.30;;;22.20;45.00;;;;;;5046778;28;20235;-52
2021/10/19 01:52:14;;;;;;;0.30;0.30;;;22.20;44.90;;;;;;5047874;28;20200;-52
2021/10/19 01:54:45;;;;;;;0.32;0.30;;;22.30;44.90;;;;;;5046561;28;20654;-46
2021/10/19 01:57:15;;;;;;;0.52;0.40;;;22.30;44.60;;;;;;5048459;28;20238;-49
2021/10/19 01:59:46;;;;;;;0.40;0.40;;;22.30;44.60;;;;;;5055179;28;20286;-47
2021/10/19 02:02:16;;;;;;;0.30;0.30;;;22.30;44.50;;;;;;5052005;28;20262;-42
2021/10/19 02:04:47;;;;;;;0.30;0.30;;;22.40;44.40;;;;;;5051676;28;20235;-47
2021/10/19 02:07:19;;;;;;;0.40;0.40;;;22.40;44.30;;;;;;5051730;28;20572;-46
2021/10/19 02:09:50;;;;;;;0.43;0.30;;;22.40;44.30;;;;;;5043419;28;20231;-46
2021/10/19 02:12:20;;;;;;;0.35;0.30;;;22.40;44.30;;;;;;5067502;28;20234;-44
2021/10/19 02:14:51;;;;;;;0.60;0.30;;;22.50;44.40;;;;;;5066459;28;20823;-54
2021/10/19 02:17:21;;;;;;;0.80;0.30;;;22.50;44.50;;;;;;5051843;28;20263;-49
2021/10/19 02:19:52;;;;;;;0.43;0.32;;;22.50;44.60;;;;;;5051945;28;20258;-47
2021/10/19 02:22:24;;;;;;;1.52;0.50;;;22.50;44.70;;;;;;5051692;28;20320;-54
2021/10/19 02:24:54;;;;;;;0.85;0.40;;;22.60;44.80;;;;;;5054048;28;20289;-45
2021/10/19 02:27:25;;;;;;;1.30;0.50;;;22.60;44.80;;;;;;5064019;28;20234;-42
2021/10/19 02:29:55;;;;;;;0.93;0.57;;;22.60;44.80;;;;;;5051483;28;20824;-51
2021/10/19 02:32:26;;;;;;;1.33;0.43;;;22.60;44.80;;;;;;5036347;28;20278;-43
2021/10/19 02:34:56;;;;;;;1.77;0.50;;;22.60;44.90;;;;;;5059039;28;20755;-49
2021/10/19 02:37:29;;;;;;;1.48;0.50;;;22.70;45.00;;;;;;5066264;28;20253;-44
2021/10/19 02:39:59;;;;;;;1.75;0.60;;;22.70;45.00;;;;;;5052453;28;20677;-45
2021/10/19 02:42:30;;;;;;;2.05;0.60;;;22.80;45.10;;;;;;5049915;28;20223;-48
2021/10/19 02:45:02;;;;;;;0.60;0.43;;;22.80;45.00;;;;;;5057780;28;20230;-46
2021/10/19 02:47:32;;;;;;;1.17;0.57;;;22.80;45.00;;;;;;5063257;28;20203;-43
2021/10/19 02:50:03;;;;;;;1.65;0.80;;;22.80;45.00;;;;;;5061410;28;20302;-53
2021/10/19 02:52:35;;;;;;;1.75;0.70;;;22.80;45.00;;;;;;5049974;28;20278;-50
2021/10/19 02:55:07;;;;;;;2.33;1.00;;;22.80;44.90;;;;;;5048936;28;20297;-47
2021/10/19 02:57:37;;;;;;;3.03;0.80;;;22.90;44.90;;;;;;5066869;28;20221;-50
2021/10/19 03:00:09;;;;;;;2.60;0.80;;;22.90;44.90;;;;;;5064298;28;20246;-50
2021/10/19 03:02:40;;;;;;;3.28;0.90;;;22.90;44.80;;;;;;5050651;28;20286;-47
2021/10/19 03:05:11;;;;;;;2.58;1.02;;;22.90;44.80;;;;;;5054125;28;20718;-52
2021/10/19 03:07:43;;;;;;;3.90;1.05;;;22.90;44.90;;;;;;5062806;28;20245;-45
2021/10/19 03:10:14;;;;;;;2.67;1.20;;;22.90;44.90;;;;;;5056016;28;20254;-51
2021/10/19 03:12:45;;;;;;;3.50;0.98;;;22.90;44.90;;;;;;5050836;28;20208;-48
2021/10/19 03:15:19;;;;;;;2.40;1.30;;;22.90;44.90;;;;;;5064857;28;20919;-48
2021/10/19 03:17:50;;;;;;;6.57;1.60;;;22.90;45.00;;;;;;5033404;28;20540;-49
2021/10/19 03:20:20;;;;;;;1.60;1.00;;;22.90;44.90;;;;;;5066749;28;20258;-51
2021/10/19 03:22:52;;;;;;;4.35;1.38;;;22.90;44.90;;;;;;5050507;28;20476;-46
2021/10/19 03:25:23;;;;;;;3.30;1.20;;;22.90;45.00;;;;;;5048049;28;20234;-51
2021/10/19 03:27:53;;;;;;;3.85;1.40;;;22.90;45.10;;;;;;5048379;28;20289;-45
2021/10/19 03:30:24;;;;;;;4.35;1.30;;;22.90;45.10;;;;;;5049669;28;20742;-45
2021/10/19 03:32:54;;;;;;;3.80;1.20;;;22.90;45.20;;;;;;5050299;28;20765;-48
2021/10/19 03:35:26;;;;;;;3.45;1.23;;;22.90;45.20;;;;;;5052968;28;20368;-45
2021/10/19 03:37:59;;;;;;;2.63;1.17;;;22.90;45.20;;;;;;5047916;28;20242;-50
2021/10/19 03:40:29;;;;;;;2.53;1.17;;;22.90;45.20;;;;;;5048011;28;20299;-50
2021/10/19 03:43:00;;;;;;;5.57;1.88;;;22.90;45.20;;;;;;5066056;28;20282;-43
2021/10/19 03:45:30;;;;;;;2.67;1.30;;;22.90;45.20;;;;;;5050431;28;20238;-48
2021/10/19 03:48:01;;;;;;;3.72;1.45;;;22.90;45.20;;;;;;5061285;28;20282;-45
2021/10/19 03:50:31;;;;;;;4.78;1.58;;;22.90;45.30;;;;;;5052210;28;20306;-47
2021/10/19 03:53:04;;;;;;;4.80;1.80;;;22.90;45.20;;;;;;5053309;28;20226;-45
2021/10/19 03:55:34;;;;;;;4.15;1.50;;;22.80;45.20;;;;;;5060366;28;20254;-50
2021/10/19 03:58:05;;;;;;;4.18;1.60;;;22.80;45.10;;;;;;5059230;28;20237;-50
2021/10/19 04:00:35;;;;;;;3.47;1.30;;;22.80;45.10;;;;;;5047450;28;20298;-45
2021/10/19 04:03:06;;;;;;;3.30;1.45;;;22.80;45.20;;;;;;5048210;28;20254;-48
2021/10/19 04:05:36;;;;;;;4.75;1.77;;;22.80;45.40;;;;;;5065753;28;20241;-55
2021/10/19 04:08:09;;;;;;;4.47;1.42;;;22.80;45.40;;;;;;5049735;28;20235;-55
2021/10/19 04:10:39;;;;;;;6.28;1.60;;;22.80;45.40;;;;;;5049211;28;20311;-46
2021/10/19 04:13:10;;;;;;;5.07;1.33;;;22.80;45.50;;;;;;5048971;28;20294;-42
2021/10/19 04:15:40;;;;;;;4.85;1.70;;;22.80;45.50;;;;;;5047481;28;20321;-49
2021/10/19 04:18:11;;;;;;;6.70;1.92;;;22.70;45.40;;;;;;5058303;28;20682;-49
2021/10/19 04:20:41;;;;;;;3.97;1.58;;;22.70;45.40;;;;;;5050981;28;20216;-47
2021/10/19 04:23:14;;;;;;;4.80;1.80;;;22.70;45.50;;;;;;5059912;28;20282;-49
2021/10/19 04:25:44;;;;;;;3.75;1.55;;;22.70;45.40;;;;;;5039590;28;20318;-51
2021/10/19 04:28:15;;;;;;;5.13;1.63;;;22.70;45.30;;;;;;5058369;28;20290;-50
2021/10/19 04:30:47;;;;;;;4.78;1.67;;;22.60;45.30;;;;;;5046961;28;21019;-49
2021/10/19 04:33:17;;;;;;;4.03;1.40;;;22.60;45.40;;;;;;5050783;28;20725;-50
2021/10/19 04:35:48;;;;;;;4.88;1.50;;;22.60;45.40;;;;;;5058497;28;20309;-49
2021/10/19 04:38:20;;;;;;;3.80;1.80;;;22.60;45.40;;;;;;5055232;28;20242;-44
2021/10/19 04:40:51;;;;;;;3.78;1.73;;;22.50;45.30;;;;;;5046383;28;20710;-52
2021/10/19 04:43:21;;;;;;;5.88;2.05;;;22.50;45.30;;;;;;5048973;28;20282;-50
2021/10/19 04:45:53;;;;;;;4.78;1.58;;;22.50;45.40;;;;;;5062673;28;20269;-48
2021/10/19 04:48:24;;;;;;;4.63;1.55;;;22.50;45.50;;;;;;5032162;28;20787;-47
2021/10/19 04:50:54;;;;;;;4.60;1.70;;;22.40;45.40;;;;;;5049497;28;20345;-52
2021/10/19 04:53:27;;;;;;;4.13;1.80;;;22.40;45.50;;;;;;5049957;28;20238;-46
2021/10/19 04:55:57;;;;;;;3.70;1.20;;;22.40;45.40;;;;;;5059222;28;20285;-45
2021/10/19 04:58:28;;;;;;;5.18;1.60;;;22.40;45.40;;;;;;5053487;28;20235;-49
2021/10/19 05:00:58;;;;;;;4.22;1.50;;;22.40;45.40;;;;;;5054150;28;20250;-46
2021/10/19 05:03:29;;;;;;;4.60;1.75;;;22.40;45.30;;;;;;5060130;28;20281;-49
2021/10/19 05:06:00;;;;;;;5.40;1.88;;;22.30;45.50;;;;;;5061193;28;20283;-46
2021/10/19 05:08:32;;;;;;;5.28;1.60;;;22.30;45.60;;;;;;5062396;28;20230;-46
2021/10/19 05:11:03;;;;;;;6.55;2.08;;;22.30;45.60;;;;;;5053082;28;20215;-51
2021/10/19 05:13:33;;;;;;;4.28;1.58;;;22.30;45.60;;;;;;5054428;28;20231;-47
2021/10/19 05:16:04;;;;;;;3.58;1.55;;;22.20;45.50;;;;;;5062295;28;20895;-47
2021/10/19 05:18:35;;;;;;;4.10;1.85;;;22.20;45.60;;;;;;5044942;28;20294;-48
2021/10/19 05:21:05;;;;;;;5.30;1.65;;;22.20;45.60;;;;;;5057070;28;20302;-46
2021/10/19 05:23:37;;;;;;;5.45;1.52;;;22.20;45.60;;;;;;5055896;28;20200;-48
2021/10/19 05:26:09;;;;;;;4.63;1.75;;;22.20;45.70;;;;;;5051817;28;20226;-45
2021/10/19 05:28:39;;;;;;;3.28;1.52;;;22.10;45.70;;;;;;5050470;28;20729;-47
2021/10/19 05:31:10;;;;;;;3.85;1.50;;;22.10;45.80;;;;;;5046963;28;20230;-44
2021/10/19 05:33:40;;;;;;;3.33;1.50;;;22.10;45.80;;;;;;5067051;28;20281;-48
2021/10/19 05:36:10;;;;;;;5.38;1.60;;;22.10;45.80;;;;;;5069501;28;20221;-43
2021/10/19 05:38:43;;;;;;;4.72;1.40;;;22.00;45.80;;;;;;5066013;28;20286;-48
2021/10/19 05:41:16;;;;;;;3.70;1.30;;;22.00;45.90;;;;;;5065317;28;20218;-42
2021/10/19 05:43:47;;;;;;;3.28;1.30;;;22.00;46.00;;;;;;5065116;28;20623;-45
2021/10/19 05:46:18;;;;;;;4.18;1.73;;;22.00;46.00;;;;;;5059352;28;20663;-43
2021/10/19 05:48:52;;;;;;;5.55;1.65;;;22.00;46.10;;;;;;5049306;28;20801;-49
2021/10/19 05:51:22;;;;;;;5.13;1.80;;;22.00;46.10;;;;;;5065361;28;20677;-43
2021/10/19 05:53:55;;;;;;;4.28;1.88;;;21.90;46.10;;;;;;5067116;28;20688;-47
2021/10/19 05:56:25;;;;;;;5.15;1.15;;;21.90;46.00;;;;;;5045337;28;20203;-46
2021/10/19 05:58:56;;;;;;;5.57;1.60;;;21.90;46.00;;;;;;5054717;28;20288;-50
2021/10/19 06:01:26;;;;;;;5.88;1.90;;;21.90;46.00;;;;;;5053807;28;20306;-46
2021/10/19 06:03:57;;;;;;;6.53;1.52;;;21.90;46.00;;;;;;5064368;28;20636;-44
2021/10/19 06:06:27;;;;;;;3.63;1.52;;;21.80;46.00;;;;;;5066251;28;20199;-44
2021/10/19 06:09:00;;;;;;;5.22;2.08;;;21.80;46.00;;;;;;5056038;28;20192;-45
2021/10/19 06:11:30;;;;;;;5.38;1.63;;;21.80;46.10;;;;;;5051279;28;20306;-44
2021/10/19 06:14:01;;;;;;;5.32;1.85;;;21.80;46.10;;;;;;5053605;28;20282;-45
2021/10/19 06:16:31;;;;;;;4.32;1.60;;;21.70;46.20;;;;;;5064278;28;20275;-48
2021/10/19 06:19:02;;;;;;;3.78;1.50;;;21.70;46.20;;;;;;5039971;28;20198;-46
2021/10/19 06:21:32;;;;;;;4.00;1.63;;;21.70;46.30;;;;;;5052547;28;20872;-44
2021/10/19 06:24:05;;;;;;;3.60;1.40;;;21.70;46.40;;;;;;5066549;28;20520;-43
2021/10/19 06:26:37;;;;;;;3.47;1.67;;;21.60;46.30;;;;;;5052230;28;21006;-41
2021/10/19 06:29:09;;;;;;;4.95;1.63;;;21.60;46.30;;;;;;5051202;28;20206;-42
2021/10/19 06:31:41;;;;;;;3.20;1.38;;;21.60;46.90;;;;;;5051753;28;20307;-45
2021/10/19 06:34:11;;;;;;;3.63;1.33;;;21.60;46.40;;;;;;5050472;28;20197;-49
2021/10/19 06:36:42;;;;;;;5.35;1.70;;;21.60;46.40;;;;;;5063035;28;20237;-44
2021/10/19 06:39:14;;;;;;;3.53;1.42;;;21.50;46.40;;;;;;5049761;28;20199;-46
2021/10/19 06:41:45;;;;;;;4.40;1.52;;;21.50;46.40;;;;;;5055724;28;20263;-47
2021/10/19 06:44:16;;;;;;;3.28;1.50;;;21.50;46.50;;;;;;5059102;28;20283;-47
2021/10/19 06:46:47;;;;;;;4.15;1.48;;;21.50;46.50;;;;;;5066387;28;20248;-42
2021/10/19 06:49:17;;;;;;;4.32;1.60;;;21.50;46.50;;;;;;5055764;28;20290;-47
2021/10/19 06:51:48;;;;;;;2.90;1.20;;;21.40;46.60;;;;;;5064320;28;20258;-42
2021/10/19 06:54:20;;;;;;;3.97;1.60;;;21.40;46.60;;;;;;5064745;28;20800;-41
2021/10/19 06:56:50;;;;;;;3.58;1.60;;;21.40;46.60;;;;;;5061096;28;20233;-50
2021/10/19 06:59:21;;;;;;;3.58;1.67;;;21.30;46.60;;;;;;5061673;28;20287;-45
2021/10/19 07:01:51;;;;;;;5.38;1.45;;;21.30;46.70;;;;;;5050528;28;20246;-45
2021/10/19 07:04:22;;;;;;;4.88;1.60;;;21.30;47.00;;;;;;5038509;28;20242;-48
2021/10/19 07:06:52;;;;;;;4.55;1.60;;;21.30;47.30;;;;;;5052230;28;20287;-48
2021/10/19 07:09:25;;;;;;;4.25;1.73;;;21.30;47.60;;;;;;5054843;28;20632;-45
2021/10/19 07:11:57;;;;;;;3.45;1.33;;;21.30;47.70;;;;;;5049994;28;20277;-46
2021/10/19 07:14:28;;;;;;;5.65;1.58;;;21.30;47.50;;;;;;5049581;28;20200;-46
2021/10/19 07:16:58;;;;;;;5.18;1.80;;;21.30;47.50;;;;;;5050770;28;20231;-45
2021/10/19 07:19:29;;;;;;;3.78;1.50;;;21.30;47.60;;;;;;5044231;28;20196;-44
2021/10/19 07:21:59;;;;;;;3.42;1.30;;;21.20;47.50;;;;;;5051072;28;20208;-47
2021/10/19 07:24:32;;;;;;;3.10;1.25;;;21.20;47.50;;;;;;5064565;28;20227;-48
2021/10/19 07:27:03;;;;;;;5.63;1.33;;;21.20;47.60;;;;;;5055894;28;20647;-45
2021/10/19 07:29:33;;;;;;;3.17;1.25;;;21.20;47.60;;;;;;5051949;28;20222;-45
2021/10/19 07:32:04;;;;;;;4.28;1.35;;;21.20;47.60;;;;;;5050529;28;20235;-46
2021/10/19 07:34:34;;;;;;;3.88;1.38;;;21.10;47.90;;;;;;5060842;28;20199;-42
2021/10/19 07:37:05;;;;;;;4.00;1.70;;;21.10;47.60;;;;;;5054134;28;20238;-43
2021/10/19 07:39:37;;;;;;;4.63;1.50;;;21.10;47.60;;;;;;5049836;28;20824;-47
2021/10/19 07:42:08;;;;;;;3.08;1.50;;;21.10;47.70;;;;;;5049216;28;20223;-45
2021/10/19 07:44:38;;;;;;;3.55;1.40;;;21.10;47.60;;;;;;5051650;28;20293;-44
2021/10/19 07:47:09;;;;;;;3.08;1.20;;;21.10;47.60;;;;;;5050254;28;20694;-43
2021/10/19 07:49:39;;;;;;;4.60;1.80;;;21.00;47.70;;;;;;5046619;28;20230;-46
2021/10/19 07:52:11;;;;;;;4.45;1.40;;;21.00;47.70;;;;;;5049283;28;20287;-41
2021/10/19 07:54:44;;;;;;;3.83;1.48;;;21.00;47.70;;;;;;5062838;28;20659;-43
2021/10/19 07:57:14;;;;;;;2.75;1.52;;;21.00;47.70;;;;;;5049929;28;20322;-43
2021/10/19 07:59:45;;;;;;;3.28;1.48;;;21.00;47.70;;;;;;5054106;28;20245;-49
2021/10/19 08:02:15;;;;;;;3.80;1.30;;;20.90;47.70;;;;;;5049795;28;20227;-44
2021/10/19 08:04:46;;;;;;;3.03;1.25;;;20.90;47.70;;;;;;5051816;28;20226;-42
2021/10/19 08:07:16;;;;;;;3.85;1.38;;;20.90;47.80;;;;;;5062257;28;20282;-45
2021/10/19 08:09:49;;;;;;;3.22;1.35;;;20.90;47.80;;;;;;5062140;28;20702;-49
2021/10/19 08:12:19;;;;;;;3.25;1.48;;;20.80;48.40;;;;;;5052999;28;20239;-43
2021/10/19 08:14:49;;;;;;;3.15;1.35;;;20.80;47.80;;;;;;5065654;28;20222;-45
2021/10/19 08:17:20;;;;;;;2.85;1.40;;;20.80;47.80;;;;;;5062927;28;20222;-42
2021/10/19 08:19:50;;;;;;;3.63;1.30;;;20.80;47.80;;;;;;5057994;28;20227;-46
2021/10/19 08:22:21;;;;;;;2.22;1.30;;;20.70;47.80;;;;;;5044207;28;20679;-41
2021/10/19 08:24:53;;;;;;;3.72;1.35;;;20.70;47.80;;;;;;5047684;28;20261;-46
2021/10/19 08:27:24;;;;;;;2.30;1.20;;;20.70;47.80;;;;;;5048934;28;20235;-44
2021/10/19 08:29:55;;;;;;;3.60;1.40;;;20.70;47.90;;;;;;5048067;28;20376;-42
2021/10/19 08:32:25;;;;;;;2.85;1.35;;;20.60;47.90;;;;;;5034566;28;20243;-42
2021/10/19 08:34:56;;;;;;;4.18;1.88;;;20.60;47.90;;;;;;5056053;28;20230;-42
2021/10/19 08:37:26;;;;;;;3.47;1.80;;;20.60;47.90;;;;;;5060773;28;20239;-43
2021/10/19 08:39:59;;;;;;;2.67;1.38;;;20.60;47.90;;;;;;5059573;28;20306;-43
2021/10/19 08:42:30;;;;;;;3.05;1.48;;;20.60;48.00;;;;;;5053248;28;20683;-46
2021/10/19 08:45:00;;;;;;;2.78;1.50;;;20.60;47.90;;;;;;5058186;28;20293;-45
2021/10/19 08:47:31;;;;;;;2.47;1.40;;;20.50;47.90;;;;;;5056728;28;20921;-46
2021/10/19 08:50:01;;;;;;;2.53;1.25;;;20.50;47.90;;;;;;5049861;28;20247;-50
2021/10/19 08:52:32;;;;;;;3.78;1.58;;;20.50;48.00;;;;;;5047515;28;20231;-46
2021/10/19 08:55:04;;;;;;;2.83;1.42;;;20.50;48.00;;;;;;5048121;28;20236;-46
2021/10/19 08:57:35;;;;;;;2.85;1.38;;;20.40;48.00;;;;;;5052883;28;20238;-42
2021/10/19 09:00:08;;;;;;;2.42;1.30;;;20.40;47.90;;;;;;5050018;28;20251;-48
2021/10/19 09:02:41;;;;;;;2.97;1.60;;;20.40;48.00;;;;;;5061358;28;20298;-45
2021/10/19 09:05:18;;;;;;;2.50;1.20;;;20.40;48.00;;;;;;5061707;28;20245;-43
2021/10/19 09:07:59;;;;;;;3.03;1.52;;;20.40;48.10;;;;;;5051598;28;20435;-47
2021/10/19 09:10:35;;;;;;;3.85;1.63;;;20.30;48.10;;;;;;5052345;28;20255;-44
2021/10/19 09:13:06;;;;;;;3.28;1.50;;;20.30;48.10;;;;;;5047134;28;20288;-45
2021/10/19 09:15:39;;;;;;;3.13;1.40;;;20.30;48.20;;;;;;5048412;28;20680;-45
2021/10/19 09:18:11;;;;;;;3.10;1.50;;;20.30;48.20;;;;;;5045677;28;20264;-48
2021/10/19 09:20:43;;;;;;;3.05;1.48;;;20.30;48.20;;;;;;5048165;28;20682;-48
2021/10/19 09:23:15;;;;;;;3.35;1.30;;;20.30;48.30;;;;;;5048591;28;20227;-47
2021/10/19 09:25:49;;;;;;;3.17;1.70;;;20.30;48.30;;;;;;5048395;28;20200;-50
2021/10/19 09:28:35;;;;;;;3.15;1.20;;;20.20;48.30;;;;;;5053834;28;20245;-44
2021/10/19 09:31:05;;;;;;;2.00;1.30;;;20.20;48.30;;;;;;5054275;28;20219;-50
2021/10/19 09:33:36;;;;;;;3.22;1.50;;;20.20;48.30;;;;;;5056375;28;20618;-47
2021/10/19 09:36:07;;;;;;;2.33;1.20;;;20.10;48.20;;;;;;5053549;28;20223;-44
2021/10/19 09:38:37;;;;;;;2.40;1.20;;;20.10;48.20;;;;;;5053051;28;20226;-45
2021/10/19 09:41:10;;;;;;;2.67;1.20;;;20.10;48.30;;;;;;5062044;28;20773;-46
2021/10/19 09:43:40;;;;;;;3.10;1.40;;;20.10;48.30;;;;;;5036198;28;20286;-44
2021/10/19 09:46:11;;;;;;;2.38;1.25;;;20.10;48.30;;;;;;5062696;28;20245;-43
2021/10/19 09:48:45;;;;;;;2.53;1.30;;;20.10;48.30;;;;;;5048239;28;20199;-50
2021/10/19 09:51:16;;;;;;;2.05;1.25;;;20.00;48.30;;;;;;5036930;28;20311;-47
2021/10/19 09:53:47;;;;;;;2.25;1.40;;;20.00;48.40;;;;;;5048017;28;20239;-46
2021/10/19 09:56:20;;;;;;;2.65;1.20;;;20.00;48.40;;;;;;5048101;28;20258;-49
2021/10/19 09:58:50;;;;;;;2.85;1.33;;;20.00;48.40;;;;;;5051757;28;20285;-44
2021/10/19 10:01:21;;;;;;;2.40;1.25;;;20.00;48.40;;;;;;5061978;28;20360;-46
2021/10/19 10:03:51;;;;;;;2.60;1.30;;;19.90;48.40;;;;;;5056028;28;20250;-46
2021/10/19 10:06:23;;;;;;;2.22;1.17;;;19.90;48.40;;;;;;5060610;28;20204;-49
2021/10/19 10:08:54;;;;;;;1.73;1.00;;;19.90;48.40;;;;;;5062777;28;20282;-44
2021/10/19 10:11:26;;;;;;;2.95;1.15;;;19.90;48.40;;;;;;5038316;28;20301;-48
2021/10/19 10:14:02;;;;;;;1.92;1.25;;;19.90;48.40;;;;;;5063142;28;20688;-51
2021/10/19 10:16:43;;;;;;;2.13;1.23;;;19.90;48.40;;;;;;5046596;28;20222;-45
2021/10/19 10:19:15;;;;;;;1.92;1.15;;;19.80;48.40;;;;;;5061455;28;20242;-47
2021/10/19 10:21:51;;;;;;;3.08;1.25;;;19.80;48.40;;;;;;5063837;28;20250;-44
2021/10/19 10:24:32;;;;;;;2.95;1.50;;;19.80;48.40;;;;;;5056024;28;20234;-46
2021/10/19 10:27:12;;;;;;;2.58;1.13;;;19.80;48.40;;;;;;5050814;28;20196;-48
2021/10/19 10:29:44;;;;;;;2.28;1.17;;;19.70;48.40;;;;;;5047833;28;20253;-43
2021/10/19 10:32:25;;;;;;;2.03;1.10;;;19.70;48.40;;;;;;5044015;28;20206;-46
2021/10/19 10:35:07;;;;;;;5.40;1.15;;;19.70;48.40;;;;;;5050121;28;20227;-50
2021/10/19 10:37:42;;;;;;;1.65;1.10;;;19.70;48.50;;;;;;5053736;28;20306;-48
2021/10/19 10:40:28;;;;;;;3.85;1.42;;;19.60;48.40;;;;;;5064335;28;20265;-46
2021/10/19 10:43:02;;;;;;;2.05;1.30;;;19.60;48.40;;;;;;5050118;28;20718;-42
2021/10/19 10:45:34;;;;;;;1.55;0.98;;;19.60;48.50;;;;;;5038370;28;20793;-50
2021/10/19 10:48:06;;;;;;;2.50;1.17;;;19.60;48.50;;;;;;5051807;28;20227;-45
2021/10/19 10:50:38;;;;;;;3.33;1.33;;;19.60;48.50;;;;;;5047201;28;20256;-44
2021/10/19 10:53:10;;;;;;;2.67;1.10;;;19.60;48.60;;;;;;5052099;28;20238;-46
2021/10/19 10:55:42;;;;;;;3.60;1.40;;;19.60;48.60;;;;;;5050956;28;20199;-45
2021/10/19 10:58:24;;;;;;;2.47;1.25;;;19.60;48.60;;;;;;5051418;28;20230;-45
2021/10/19 11:00:55;;;;;;;3.25;1.33;;;19.50;48.50;;;;;;5047829;28;20254;-44
2021/10/19 11:03:26;;;;;;;1.63;1.17;;;19.50;48.50;;;;;;5049597;28;20238;-49
2021/10/19 11:05:58;;;;;;;2.13;1.10;;;19.50;48.60;;;;;;5061758;28;20235;-46
2021/10/19 11:08:29;;;;;;;1.33;0.90;;;19.50;48.60;;;;;;5064321;28;20227;-48
2021/10/19 11:11:08;;;;;;;2.58;1.10;;;19.40;48.50;;;;;;5039036;28;20246;-45
2021/10/19 11:13:52;;;;;;;1.88;0.95;;;19.40;48.50;;;;;;5053096;28;20222;-45
2021/10/19 11:16:31;;;;;;;1.30;1.10;;;19.40;48.60;;;;;;5050256;28;20269;-47
2021/10/19 11:19:02;;;;;;;2.35;1.40;;;19.40;48.60;;;;;;5051459;28;20253;-44
2021/10/19 11:21:33;;;;;;;2.25;1.20;;;19.40;48.70;;;;;;5037722;28;20220;-45
2021/10/19 11:24:03;;;;;;;1.52;1.00;;;19.30;48.60;;;;;;5057533;28;20234;-46
2021/10/19 11:26:34;;;;;;;2.90;1.55;;;19.30;48.60;;;;;;5055084;28;20244;-46
2021/10/19 11:29:07;;;;;;;2.58;0.98;;;19.30;48.60;;;;;;5046572;28;20239;-43
2021/10/19 11:31:39;;;;;;;2.25;1.10;;;19.30;48.70;;;;;;5049962;28;20321;-52
2021/10/19 11:34:10;;;;;;;1.33;1.00;;;19.30;48.70;;;;;;5065313;28;20190;-49
2021/10/19 11:36:40;;;;;;;1.88;1.27;;;19.30;48.70;;;;;;5065519;28;20251;-50
2021/10/19 11:39:16;;;;;;;2.72;0.98;;;19.30;48.70;;;;;;5050390;28;20231;-48
2021/10/19 11:41:48;;;;;;;1.50;0.93;;;19.20;48.60;;;;;;5053297;28;20297;-45
2021/10/19 11:44:20;;;;;;;2.70;1.20;;;19.20;48.70;;;;;;5064465;28;20241;-45
2021/10/19 11:46:51;;;;;;;1.65;0.88;;;19.20;48.70;;;;;;5063691;28;20227;-47
2021/10/19 11:49:23;;;;;;;1.17;0.90;;;19.20;48.70;;;;;;5054186;28;20249;-48
2021/10/19 11:51:55;;;;;;;2.35;1.10;;;19.20;48.70;;;;;;5049878;28;20247;-41
2021/10/19 11:54:26;;;;;;;2.88;1.05;;;19.20;48.70;;;;;;5053016;28;20242;-50
2021/10/19 11:57:00;;;;;;;1.85;1.10;;;19.20;48.70;;;;;;5060508;28;20707;-45
2021/10/19 11:59:43;;;;;;;1.02;0.90;;;19.10;48.70;;;;;;5035050;28;20276;-45
2021/10/19 12:02:13;;;;;;;2.20;1.02;;;19.10;48.70;;;;;;5049588;28;20229;-45
2021/10/19 12:04:46;;;;;;;2.42;1.38;;;19.10;48.70;;;;;;5067022;28;20282;-43
2021/10/19 12:07:29;;;;;;;1.35;1.00;;;19.10;49.00;;;;;;5050165;28;20230;-44
2021/10/19 12:10:11;;;;;;;1.27;0.93;;;19.00;48.70;;;;;;5050708;28;20222;-48
2021/10/19 12:12:41;;;;;;;1.75;1.10;;;19.00;48.70;;;;;;5060054;28;20202;-43
2021/10/19 12:15:22;;;;;;;2.15;1.38;;;19.00;48.80;;;;;;5051324;28;20293;-48
2021/10/19 12:17:58;;;;;;;1.60;0.82;;;19.00;48.80;;;;;;5059481;28;20233;-46
2021/10/19 12:20:30;;;;;;;1.38;0.90;;;19.00;48.80;;;;;;5055779;28;20221;-44
2021/10/19 12:23:02;;;;;;;2.83;1.35;;;19.00;48.80;;;;;;5044656;28;20292;-42
2021/10/19 12:25:40;;;;;;;1.92;1.00;;;19.00;48.80;;;;;;5039995;28;20245;-50
2021/10/19 12:28:17;;;;;;;1.83;0.98;;;18.90;48.70;;;;;;5049871;28;20290;-46
2021/10/19 12:30:49;;;;;;;1.52;0.90;;;18.90;48.80;;;;;;5049439;28;20250;-44
2021/10/19 12:33:21;;;;;;;1.70;1.00;;;18.90;48.80;;;;;;5047788;28;20273;-44
2021/10/19 12:35:57;;;;;;;1.30;0.90;;;18.90;48.90;;;;;;5053399;28;20223;-46
2021/10/19 12:38:32;;;;;;;1.45;1.00;;;18.90;48.90;;;;;;5064148;28;20194;-45
2021/10/19 12:41:11;;;;;;;1.65;0.98;;;18.90;48.90;;;;;;5064088;28;20257;-43
2021/10/19 12:43:44;;;;;;;1.35;0.77;;;18.80;49.40;;;;;;5049225;28;20279;-44
2021/10/19 12:46:18;;;;;;;1.20;0.80;;;18.80;48.90;;;;;;5059783;28;20199;-51
2021/10/19 12:48:49;;;;;;;1.15;0.88;;;18.80;48.90;;;;;;5055304;28;20237;-46
2021/10/19 12:51:21;;;;;;;1.20;0.80;;;18.80;48.90;;;;;;5048541;28;20270;-45
2021/10/19 12:53:52;;;;;;;1.63;1.00;;;18.70;48.80;;;;;;5050407;28;20666;-42
2021/10/19 12:56:25;;;;;;;0.90;0.80;;;18.80;48.90;;;;;;5061207;28;20307;-45
2021/10/19 12:58:56;;;;;;;1.02;0.85;;;18.70;48.90;;;;;;5047742;28;20597;-44
2021/10/19 13:01:29;;;;;;;1.30;0.93;;;18.70;48.90;;;;;;5065832;28;20254;-46
2021/10/19 13:03:59;;;;;;;1.58;0.90;;;18.70;48.90;;;;;;5060532;28;20850;-48
2021/10/19 13:06:30;;;;;;;1.42;0.90;;;18.70;48.90;;;;;;5046153;28;20294;-45
2021/10/19 13:09:02;;;;;;;1.27;0.90;;;18.70;48.90;;;;;;5035552;28;20278;-44
2021/10/19 13:11:33;;;;;;;1.60;0.90;;;18.70;48.90;;;;;;5044457;28;20223;-41